KNFL/NFL METAR and TAF weather

Enter ICAO airport designator
Station Type Date Time Source
KNFL METAR 2022/06/29 00:56 UTC NOAA

KNFL 290056Z 28018G27KT 10SM FEW080 FEW120 35/M02 A3001 RMK PK WND 28028/0041 SLP131 BLDU DSNT NE-E T03501017


Station Type Date Time Source
KNFL Decoded METAR 2022/06/29 00:56 UTC NOAA

FALLON NAVAL AIR STATION, NV, United States (KNFL) 39-26N 118-41W 1199M
Jun 28, 2022 - 08:56 PM EDT / 2022.06.29 0056 UTC
Wind: from the W (280 degrees) at 21 MPH (18 KT) gusting to 31 MPH (27 KT):0
Visibility: 10 mile(s):0
Sky conditions: mostly clear
Temperature: 95.0 F (35.0 C)
Dew Point: 28.9 F (-1.7 C)
Relative Humidity: 9%
Pressure (altimeter): 30.01 in. Hg (1016 hPa)
ob: KNFL 290056Z 28018G27KT 10SM FEW080 FEW120 35/M02 A3001 RMK PK WND 28028/0041 SLP131 BLDU DSNT NE-E T03501017
cycle: 1

Station Type Date Time Source
KNFL TAF 2022/06/28 23:03 UTC NOAA

TAF KNFL 2823/2923 28015G25KT 9999 SCT080 SCT120 SCT250 QNH2994INS
TEMPO 2900/2904 27020G30KT
FM290600 28008KT 9999 FEW250 QNH3000INS T12/2913Z T38/2923Z FS30123

Example: see airport list